createdAt,value
2023-09-27T00:00:16.168Z,0.00
2023-09-27T00:00:46.796Z,0.00
2023-09-27T00:01:17.426Z,0.00
2023-09-27T00:01:48.151Z,0.00
2023-09-27T00:02:18.833Z,0.00
2023-09-27T00:02:49.455Z,0.00
2023-09-27T00:03:20.113Z,0.00
2023-09-27T00:03:50.725Z,0.00
2023-09-27T00:04:21.370Z,0.00
2023-09-27T00:04:52.069Z,0.00
2023-09-27T00:05:22.769Z,0.00
2023-09-27T00:05:53.699Z,0.00
2023-09-27T00:06:24.497Z,0.00
2023-09-27T00:06:55.118Z,0.00
2023-09-27T00:07:25.791Z,0.00
2023-09-27T00:07:56.471Z,0.00
2023-09-27T00:08:27.214Z,0.00
2023-09-27T00:08:57.928Z,0.00
2023-09-27T00:09:28.563Z,0.00
2023-09-27T00:09:59.152Z,0.00
2023-09-27T00:10:29.785Z,0.00
2023-09-27T00:11:00.489Z,0.00
2023-09-27T00:11:31.128Z,0.00
2023-09-27T00:12:01.761Z,0.00
2023-09-27T00:12:32.336Z,0.00
2023-09-27T00:13:02.955Z,0.00
2023-09-27T00:13:33.621Z,0.00
2023-09-27T00:14:04.267Z,0.00
2023-09-27T00:14:34.866Z,0.00
2023-09-27T00:15:05.550Z,0.00
2023-09-27T00:15:36.140Z,0.00
2023-09-27T00:16:14.433Z,0.00
2023-09-27T00:16:37.678Z,0.00
2023-09-27T00:17:08.301Z,0.00
2023-09-27T00:17:47.530Z,0.00
2023-09-27T00:18:09.309Z,0.00
2023-09-27T00:18:49.500Z,0.00
2023-09-27T00:20:35.819Z,0.00
2023-09-27T00:21:06.437Z,0.00
2023-09-27T00:21:44.577Z,0.00
2023-09-27T00:22:15.296Z,0.00
2023-09-27T00:22:38.558Z,0.00
2023-09-27T00:23:09.302Z,0.00
2023-09-27T00:23:40.019Z,0.00
2023-09-27T00:24:20.170Z,0.00
2023-09-27T00:26:07.086Z,0.00
2023-09-27T00:26:37.678Z,0.00
2023-09-27T00:27:08.292Z,0.00
2023-09-27T00:27:38.910Z,0.00
2023-09-27T00:28:09.528Z,0.00
2023-09-27T00:28:40.192Z,0.00
2023-09-27T00:29:10.806Z,0.00
2023-09-27T00:29:41.424Z,0.00
2023-09-27T00:30:12.031Z,0.00
2023-09-27T00:30:42.658Z,0.00
2023-09-27T00:31:13.298Z,0.00
2023-09-27T00:31:43.926Z,0.00
2023-09-27T00:32:14.661Z,0.00
2023-09-27T00:32:45.454Z,0.00
2023-09-27T00:33:16.299Z,0.00
2023-09-27T00:33:46.893Z,0.00
2023-09-27T00:34:17.533Z,0.00
2023-09-27T00:34:48.196Z,0.00
2023-09-27T00:35:19.386Z,0.00
2023-09-27T00:35:49.303Z,0.00
2023-09-27T00:36:19.915Z,0.00
2023-09-27T00:36:50.555Z,0.00
2023-09-27T00:37:21.397Z,0.00
2023-09-27T00:37:51.980Z,0.00
2023-09-27T00:38:22.694Z,0.00
2023-09-27T00:38:53.567Z,0.00
2023-09-27T00:39:23.583Z,0.00
2023-09-27T00:39:54.250Z,0.00
2023-09-27T00:40:24.885Z,0.00
2023-09-27T00:40:55.541Z,0.00
2023-09-27T00:41:26.239Z,0.00
2023-09-27T00:41:56.943Z,0.00
2023-09-27T00:42:27.612Z,0.00
2023-09-27T00:42:58.219Z,0.00
2023-09-27T00:43:28.831Z,0.00
2023-09-27T00:43:59.464Z,0.00
2023-09-27T00:44:30.067Z,0.00
2023-09-27T00:45:00.669Z,0.00
2023-09-27T00:45:31.299Z,0.00
2023-09-27T00:46:01.972Z,0.00
2023-09-27T00:46:32.675Z,0.00
2023-09-27T00:47:03.326Z,0.00
2023-09-27T00:47:34.003Z,0.00
2023-09-27T00:48:04.647Z,0.00
2023-09-27T00:48:35.270Z,0.00
2023-09-27T00:49:05.887Z,0.00
2023-09-27T00:49:36.539Z,0.00
2023-09-27T00:50:07.200Z,0.00
2023-09-27T00:50:37.839Z,0.00
2023-09-27T00:51:08.468Z,0.00
2023-09-27T00:51:39.104Z,0.00
2023-09-27T00:52:09.726Z,0.00
2023-09-27T00:52:40.355Z,0.00
2023-09-27T00:53:10.985Z,0.00
2023-09-27T00:53:41.572Z,0.00
2023-09-27T00:54:12.188Z,0.00
2023-09-27T00:54:42.790Z,0.00
2023-09-27T00:55:13.518Z,0.00
2023-09-27T00:55:44.241Z,0.00
2023-09-27T00:56:14.853Z,0.00
2023-09-27T00:56:45.507Z,0.00
2023-09-27T00:57:16.106Z,0.00
2023-09-27T00:57:46.716Z,0.00
2023-09-27T00:58:17.334Z,0.00
2023-09-27T00:58:47.964Z,0.00
2023-09-27T00:59:18.665Z,0.00
2023-09-27T00:59:49.260Z,0.00
2023-09-27T01:00:19.903Z,0.00
2023-09-27T01:00:50.476Z,0.00
2023-09-27T01:01:21.128Z,0.00
2023-09-27T01:01:51.753Z,0.00
2023-09-27T01:02:22.474Z,0.00
2023-09-27T01:02:53.194Z,0.00
2023-09-27T01:03:23.942Z,0.00
2023-09-27T01:03:54.547Z,0.00
2023-09-27T01:04:25.170Z,0.00
2023-09-27T01:04:55.864Z,0.00
2023-09-27T01:05:26.948Z,0.00
2023-09-27T01:05:56.885Z,0.00
2023-09-27T01:06:27.540Z,0.00
2023-09-27T01:06:58.194Z,0.00
2023-09-27T01:07:28.772Z,0.00
2023-09-27T01:07:59.422Z,0.00
2023-09-27T01:08:30.056Z,0.00
2023-09-27T01:09:00.735Z,0.00
2023-09-27T01:09:31.303Z,0.00
2023-09-27T01:10:01.934Z,0.00
2023-09-27T01:10:32.534Z,0.00
2023-09-27T01:11:03.196Z,0.00
2023-09-27T01:11:33.807Z,0.00
2023-09-27T01:12:04.451Z,0.00
2023-09-27T01:12:35.073Z,0.00
2023-09-27T01:13:05.750Z,0.00
2023-09-27T01:13:36.352Z,0.00
2023-09-27T01:14:07.017Z,0.00
2023-09-27T01:14:37.619Z,0.00
2023-09-27T01:15:08.295Z,0.00
2023-09-27T01:15:38.911Z,0.00
2023-09-27T01:16:09.575Z,0.00
2023-09-27T01:16:40.304Z,0.00
2023-09-27T01:17:10.930Z,0.00
2023-09-27T01:17:41.670Z,0.00
2023-09-27T01:18:12.374Z,0.00
2023-09-27T01:18:42.965Z,0.00
2023-09-27T01:19:13.596Z,0.00
2023-09-27T01:19:44.193Z,0.00
2023-09-27T01:20:14.875Z,0.00
2023-09-27T01:20:45.516Z,0.00
2023-09-27T01:21:16.105Z,0.00
2023-09-27T01:21:46.785Z,0.00
2023-09-27T01:22:17.460Z,0.00
2023-09-27T01:22:48.095Z,0.00
2023-09-27T01:23:18.977Z,0.00
2023-09-27T01:23:49.616Z,0.00
2023-09-27T01:24:20.253Z,0.00
2023-09-27T01:24:50.891Z,0.00
2023-09-27T01:25:21.518Z,0.00
2023-09-27T01:25:52.120Z,0.00
2023-09-27T01:26:22.762Z,0.00
2023-09-27T01:26:53.417Z,0.00
2023-09-27T01:27:24.150Z,0.00
2023-09-27T01:27:54.717Z,0.00
2023-09-27T01:28:25.333Z,0.00
2023-09-27T01:28:56.465Z,0.00
2023-09-27T01:29:26.547Z,0.00
2023-09-27T01:29:57.175Z,0.00
2023-09-27T01:30:27.794Z,0.00
2023-09-27T01:30:58.402Z,0.00
2023-09-27T01:31:29.064Z,0.00
2023-09-27T01:31:59.760Z,0.00
2023-09-27T01:32:30.442Z,0.00
2023-09-27T01:33:01.089Z,0.00
2023-09-27T01:33:31.684Z,0.00
2023-09-27T01:34:02.295Z,0.00
2023-09-27T01:34:32.924Z,0.00
2023-09-27T01:35:03.596Z,0.00
2023-09-27T01:35:34.257Z,0.00
2023-09-27T01:36:04.937Z,0.00
2023-09-27T01:36:35.559Z,0.00
2023-09-27T01:37:06.182Z,0.00
2023-09-27T01:37:36.802Z,0.00
2023-09-27T01:38:07.499Z,0.00
2023-09-27T01:38:38.135Z,0.00
2023-09-27T01:39:08.759Z,0.00
2023-09-27T01:39:39.360Z,0.00
2023-09-27T01:40:09.978Z,0.00
2023-09-27T01:40:40.620Z,0.00
2023-09-27T01:41:11.250Z,0.00
2023-09-27T01:41:41.846Z,0.00
2023-09-27T01:42:12.493Z,0.00
2023-09-27T01:42:43.108Z,0.00
2023-09-27T01:43:13.716Z,0.00
2023-09-27T01:43:44.341Z,0.00
2023-09-27T01:44:14.994Z,0.00
2023-09-27T01:44:45.672Z,0.00
2023-09-27T01:45:16.439Z,0.00
2023-09-27T01:45:47.263Z,0.00
2023-09-27T01:46:18.885Z,0.00
2023-09-27T01:46:48.740Z,0.00
2023-09-27T01:47:19.378Z,0.00
2023-09-27T01:47:50.039Z,0.00
2023-09-27T01:48:20.776Z,0.00
2023-09-27T01:48:51.475Z,0.00
2023-09-27T01:49:22.032Z,0.00
2023-09-27T01:49:52.683Z,0.00
2023-09-27T01:50:23.304Z,0.00
2023-09-27T01:50:53.906Z,0.00
2023-09-27T01:51:24.530Z,0.00
2023-09-27T01:51:55.128Z,0.00
2023-09-27T01:52:25.741Z,0.00
2023-09-27T01:52:56.507Z,0.00
2023-09-27T01:53:27.134Z,0.00
2023-09-27T01:53:57.824Z,0.00
2023-09-27T01:54:28.477Z,0.00
2023-09-27T01:54:59.117Z,0.00
2023-09-27T01:55:29.809Z,0.00
2023-09-27T01:56:00.401Z,0.00
2023-09-27T01:56:31.120Z,0.00
2023-09-27T01:57:01.750Z,0.00
2023-09-27T01:57:32.362Z,0.00
2023-09-27T01:58:02.997Z,0.00
2023-09-27T01:58:33.586Z,0.00
2023-09-27T01:59:04.206Z,0.00
2023-09-27T01:59:34.887Z,0.00
2023-09-27T02:00:05.572Z,0.00
2023-09-27T02:00:36.207Z,0.00
2023-09-27T02:01:06.908Z,0.00
2023-09-27T02:01:37.589Z,0.00
2023-09-27T02:02:08.296Z,0.00
2023-09-27T02:02:38.984Z,0.00
2023-09-27T02:03:09.666Z,0.00
2023-09-27T02:03:40.327Z,0.00
2023-09-27T02:04:10.983Z,0.00
2023-09-27T02:04:41.595Z,0.00
2023-09-27T02:05:12.203Z,0.00
2023-09-27T02:05:42.949Z,0.00
2023-09-27T02:06:13.601Z,0.00
2023-09-27T02:06:44.214Z,0.00
2023-09-27T02:07:14.821Z,0.00
2023-09-27T02:07:45.440Z,0.00
2023-09-27T02:08:16.180Z,0.00
2023-09-27T02:08:46.769Z,0.00
2023-09-27T02:09:17.412Z,0.00
2023-09-27T02:09:48.035Z,0.00
2023-09-27T02:10:18.641Z,0.00
2023-09-27T02:10:49.247Z,0.00
2023-09-27T02:11:20.030Z,0.00
2023-09-27T02:11:50.598Z,0.00
2023-09-27T02:12:21.220Z,0.00
2023-09-27T02:12:51.837Z,0.00
2023-09-27T02:13:22.473Z,0.00
2023-09-27T02:13:53.126Z,0.00
2023-09-27T02:14:23.755Z,0.00
2023-09-27T02:14:54.328Z,0.00
2023-09-27T02:15:24.961Z,0.00
2023-09-27T02:15:55.626Z,0.00
2023-09-27T02:16:26.306Z,0.00
2023-09-27T02:16:56.967Z,0.00
2023-09-27T02:17:27.625Z,0.00
2023-09-27T02:17:58.331Z,0.00
2023-09-27T02:18:28.950Z,0.00
2023-09-27T02:18:59.565Z,0.00
2023-09-27T02:19:30.177Z,0.00
2023-09-27T02:20:00.826Z,0.00
2023-09-27T02:20:31.444Z,0.00
2023-09-27T02:21:02.027Z,0.00
2023-09-27T02:21:32.637Z,0.00
2023-09-27T02:22:03.292Z,0.00
2023-09-27T02:22:33.892Z,0.00
2023-09-27T02:23:04.592Z,0.00
2023-09-27T02:23:35.235Z,0.00
2023-09-27T02:24:05.818Z,0.00
2023-09-27T02:24:36.429Z,0.00
2023-09-27T02:25:07.032Z,0.00
2023-09-27T02:25:37.643Z,0.00
2023-09-27T02:26:08.313Z,0.00
2023-09-27T02:26:38.869Z,0.00
2023-09-27T02:27:09.506Z,0.00
2023-09-27T02:27:40.134Z,0.00
2023-09-27T02:28:10.726Z,0.00
2023-09-27T02:28:41.395Z,0.00
2023-09-27T02:29:12.036Z,0.00
2023-09-27T02:29:42.662Z,0.00
2023-09-27T02:30:13.309Z,0.00
2023-09-27T02:30:43.889Z,0.00
2023-09-27T02:31:14.528Z,0.00
2023-09-27T02:31:45.175Z,0.00
2023-09-27T02:32:15.813Z,0.00
2023-09-27T02:32:46.945Z,0.00
2023-09-27T02:33:17.236Z,0.00
2023-09-27T02:33:47.794Z,0.00
2023-09-27T02:34:18.437Z,0.00
2023-09-27T02:34:49.062Z,0.00
2023-09-27T02:35:19.700Z,0.00
2023-09-27T02:35:50.335Z,0.00
2023-09-27T02:36:20.932Z,0.00
2023-09-27T02:36:51.546Z,0.00
2023-09-27T02:37:22.169Z,0.00
2023-09-27T02:37:52.847Z,0.00
2023-09-27T02:38:23.503Z,0.00
2023-09-27T02:38:54.208Z,0.00
2023-09-27T02:39:24.834Z,0.00
2023-09-27T02:39:55.447Z,0.00
2023-09-27T02:40:26.083Z,0.00
2023-09-27T02:40:56.696Z,0.00
2023-09-27T02:41:27.492Z,0.00
2023-09-27T02:41:58.129Z,0.00
2023-09-27T02:42:28.778Z,0.00
2023-09-27T02:43:00.435Z,0.00
2023-09-27T02:43:30.290Z,0.00
2023-09-27T02:44:00.964Z,0.00
2023-09-27T02:44:31.592Z,0.00
2023-09-27T02:45:02.262Z,0.00
2023-09-27T02:45:32.858Z,0.00
2023-09-27T02:46:03.475Z,0.00
2023-09-27T02:46:34.096Z,0.00
2023-09-27T02:47:04.777Z,0.00
2023-09-27T02:47:35.498Z,0.00
2023-09-27T02:48:06.221Z,0.00
2023-09-27T02:48:36.813Z,0.00
2023-09-27T02:49:07.470Z,0.00
2023-09-27T02:49:38.065Z,0.00
2023-09-27T02:50:08.727Z,0.00
2023-09-27T02:50:39.361Z,0.00
2023-09-27T02:51:09.982Z,0.00
2023-09-27T02:51:40.588Z,0.00
2023-09-27T02:52:11.273Z,0.00
2023-09-27T02:52:41.942Z,0.00
2023-09-27T02:53:12.600Z,0.00
2023-09-27T02:53:43.161Z,0.00
2023-09-27T02:54:13.922Z,0.00
2023-09-27T02:54:44.500Z,0.00
2023-09-27T02:55:15.424Z,0.00
2023-09-27T02:55:45.737Z,0.00
2023-09-27T02:56:16.373Z,0.00
2023-09-27T02:56:46.954Z,0.00
2023-09-27T02:57:17.643Z,0.00
2023-09-27T02:57:48.462Z,0.00
2023-09-27T02:58:19.052Z,0.00
2023-09-27T02:58:49.654Z,0.00
2023-09-27T02:59:20.340Z,0.00
2023-09-27T02:59:50.920Z,0.00
2023-09-27T03:00:21.560Z,0.00
2023-09-27T03:00:52.303Z,0.00
2023-09-27T03:01:23.018Z,0.00
2023-09-27T03:01:53.720Z,0.00
2023-09-27T03:02:24.383Z,0.00
2023-09-27T03:02:55.118Z,0.00
2023-09-27T03:03:25.819Z,0.00
2023-09-27T03:03:56.508Z,0.00
2023-09-27T03:04:27.118Z,0.00
2023-09-27T03:04:57.826Z,0.00
2023-09-27T03:05:28.490Z,0.00
2023-09-27T03:05:59.102Z,0.00
2023-09-27T03:06:29.725Z,0.00
2023-09-27T03:07:00.351Z,0.00
2023-09-27T03:07:30.993Z,0.00
2023-09-27T03:08:01.624Z,0.00
2023-09-27T03:08:32.255Z,0.00
2023-09-27T03:09:02.874Z,0.00
2023-09-27T03:09:33.493Z,0.00
2023-09-27T03:10:04.144Z,0.00
2023-09-27T03:10:34.734Z,0.00
2023-09-27T03:11:05.367Z,0.00
2023-09-27T03:11:36.013Z,0.00
2023-09-27T03:12:06.589Z,0.00
2023-09-27T03:12:37.216Z,0.00
2023-09-27T03:13:07.825Z,0.00
2023-09-27T03:13:38.479Z,0.00
2023-09-27T03:14:09.157Z,0.00
2023-09-27T03:14:39.789Z,0.00
2023-09-27T03:15:12.076Z,0.00
2023-09-27T03:15:41.305Z,0.00
2023-09-27T03:16:11.975Z,0.00
2023-09-27T03:16:42.588Z,0.00
2023-09-27T03:17:13.232Z,0.00
2023-09-27T03:17:44.376Z,0.00
2023-09-27T03:18:14.488Z,0.00
2023-09-27T03:18:45.115Z,0.00
2023-09-27T03:19:15.735Z,0.00
2023-09-27T03:19:46.353Z,0.00
2023-09-27T03:20:18.647Z,0.00
2023-09-27T03:20:47.194Z,0.00
2023-09-27T03:21:17.805Z,0.00
2023-09-27T03:21:48.442Z,0.00
2023-09-27T03:22:19.059Z,0.00
2023-09-27T03:22:49.667Z,0.00
2023-09-27T03:23:20.343Z,0.00
2023-09-27T03:23:50.921Z,0.00
2023-09-27T03:24:21.538Z,0.00
2023-09-27T03:24:52.196Z,0.00
2023-09-27T03:25:23.009Z,0.00
2023-09-27T03:25:53.622Z,0.00
2023-09-27T03:26:24.356Z,0.00
2023-09-27T03:26:54.978Z,0.00
2023-09-27T03:27:25.599Z,0.00
2023-09-27T03:27:56.212Z,0.00
2023-09-27T03:28:26.904Z,0.00
2023-09-27T03:28:57.721Z,0.00
2023-09-27T03:29:28.347Z,0.00
2023-09-27T03:29:58.951Z,0.00
2023-09-27T03:30:29.585Z,0.00
2023-09-27T03:31:00.233Z,0.00
2023-09-27T03:31:30.837Z,0.00
2023-09-27T03:32:01.481Z,0.00
2023-09-27T03:32:32.076Z,0.00
2023-09-27T03:33:02.731Z,0.00
2023-09-27T03:33:33.403Z,0.00
2023-09-27T03:34:04.021Z,0.00
2023-09-27T03:34:34.669Z,0.00
2023-09-27T03:35:05.305Z,0.00
2023-09-27T03:35:35.981Z,0.00
2023-09-27T03:36:06.574Z,0.00
2023-09-27T03:36:37.184Z,0.00
2023-09-27T03:37:07.929Z,0.00
2023-09-27T03:37:38.529Z,0.00
2023-09-27T03:38:09.165Z,0.00
2023-09-27T03:38:39.872Z,0.00
2023-09-27T03:39:10.451Z,0.00
2023-09-27T03:39:41.144Z,0.00
2023-09-27T03:40:11.700Z,0.00
2023-09-27T03:40:42.337Z,0.00
2023-09-27T03:41:12.976Z,0.00
2023-09-27T03:41:43.563Z,0.00
2023-09-27T03:42:14.172Z,0.00
2023-09-27T03:42:44.864Z,0.00
2023-09-27T03:43:15.475Z,0.00
2023-09-27T03:43:46.099Z,0.00
2023-09-27T03:44:16.747Z,0.00
2023-09-27T03:44:47.388Z,0.00
2023-09-27T03:45:18.587Z,0.00
2023-09-27T03:45:48.514Z,0.00
2023-09-27T03:46:19.242Z,0.00
2023-09-27T03:46:49.934Z,0.00
2023-09-27T03:47:20.839Z,0.00
2023-09-27T03:47:51.591Z,0.00
2023-09-27T03:48:22.315Z,0.00
2023-09-27T03:48:53.171Z,0.00
2023-09-27T03:49:23.222Z,0.00
2023-09-27T03:49:53.826Z,0.00
2023-09-27T03:50:24.538Z,0.00
2023-09-27T03:50:55.212Z,0.00
2023-09-27T03:51:25.806Z,0.00
2023-09-27T03:51:56.474Z,0.00
2023-09-27T03:52:27.040Z,0.00
2023-09-27T03:52:57.721Z,0.00
2023-09-27T03:53:28.601Z,0.00
2023-09-27T03:53:59.236Z,0.00
2023-09-27T03:54:29.892Z,0.00
2023-09-27T03:55:00.525Z,0.00
2023-09-27T03:55:31.194Z,0.00
2023-09-27T03:56:01.882Z,0.00
2023-09-27T03:56:32.585Z,0.00
2023-09-27T03:57:03.194Z,0.00
2023-09-27T03:57:33.814Z,0.00
2023-09-27T03:58:04.458Z,0.00
2023-09-27T03:58:35.120Z,0.00
2023-09-27T03:59:05.816Z,0.00
2023-09-27T03:59:36.501Z,0.00
2023-09-27T04:00:07.132Z,0.00
2023-09-27T04:00:37.780Z,0.00
2023-09-27T04:01:08.449Z,0.00
2023-09-27T04:01:39.094Z,0.00
2023-09-27T04:02:09.757Z,0.00
2023-09-27T04:02:40.604Z,0.00
2023-09-27T04:03:10.793Z,0.00
2023-09-27T04:03:41.584Z,0.00
2023-09-27T04:04:12.377Z,0.00
2023-09-27T04:04:42.996Z,0.00
2023-09-27T04:05:13.688Z,0.00
2023-09-27T04:05:44.314Z,0.00
2023-09-27T04:06:14.934Z,0.00
2023-09-27T04:06:45.521Z,0.00
2023-09-27T04:07:16.130Z,0.00
2023-09-27T04:07:46.770Z,0.00
2023-09-27T04:08:17.402Z,0.00
2023-09-27T04:08:48.020Z,0.00
2023-09-27T04:09:18.615Z,0.00
2023-09-27T04:09:49.322Z,0.00
2023-09-27T04:10:19.935Z,0.00
2023-09-27T04:10:50.545Z,0.00
2023-09-27T04:11:21.197Z,0.00
2023-09-27T04:11:51.806Z,0.00
2023-09-27T04:12:22.416Z,0.00
2023-09-27T04:12:53.016Z,0.00
2023-09-27T04:13:23.679Z,0.00
2023-09-27T04:13:54.285Z,0.00
2023-09-27T04:14:24.929Z,0.00
2023-09-27T04:14:55.629Z,0.00
2023-09-27T04:15:26.205Z,0.00
2023-09-27T04:15:56.938Z,0.00
2023-09-27T04:16:27.543Z,0.00
2023-09-27T04:16:58.158Z,0.00
2023-09-27T04:17:28.837Z,0.00
2023-09-27T04:17:59.468Z,0.00
2023-09-27T04:18:30.048Z,0.00
2023-09-27T04:19:00.682Z,0.00
2023-09-27T04:19:31.302Z,0.00
2023-09-27T04:20:01.968Z,0.00
2023-09-27T04:20:33.688Z,0.00
2023-09-27T04:21:03.450Z,0.00
2023-09-27T04:21:34.063Z,0.00
2023-09-27T04:22:04.733Z,0.00
2023-09-27T04:22:35.350Z,0.00
2023-09-27T04:23:06.023Z,0.00
2023-09-27T04:23:36.668Z,0.00
2023-09-27T04:24:07.248Z,0.00
2023-09-27T04:24:37.898Z,0.00
2023-09-27T04:25:08.535Z,0.00
2023-09-27T04:25:39.150Z,0.00
2023-09-27T04:26:09.785Z,0.00
2023-09-27T04:26:40.525Z,0.00
2023-09-27T04:27:11.175Z,0.00
2023-09-27T04:27:41.782Z,0.00
2023-09-27T04:28:12.414Z,0.00
2023-09-27T04:28:43.006Z,0.00
2023-09-27T04:29:13.647Z,0.00
2023-09-27T04:29:44.285Z,0.00
2023-09-27T04:30:14.858Z,0.00
2023-09-27T04:30:45.489Z,0.00
2023-09-27T04:31:16.209Z,0.00
2023-09-27T04:31:46.867Z,0.00
2023-09-27T04:32:17.473Z,0.00
2023-09-27T04:32:48.164Z,0.00
2023-09-27T04:33:18.812Z,0.00
2023-09-27T04:33:49.445Z,0.00
2023-09-27T04:34:20.032Z,0.00
2023-09-27T04:34:50.662Z,0.00
2023-09-27T04:35:21.484Z,0.00
2023-09-27T04:35:51.536Z,0.00
2023-09-27T04:36:22.133Z,0.00
2023-09-27T04:36:52.736Z,0.00
2023-09-27T04:37:23.353Z,0.00
2023-09-27T04:37:53.968Z,0.00
2023-09-27T04:38:24.948Z,0.00
2023-09-27T04:38:55.571Z,0.00
2023-09-27T04:39:26.181Z,0.00
2023-09-27T04:39:56.819Z,0.00
2023-09-27T04:40:27.425Z,0.00
2023-09-27T04:40:58.114Z,0.00
2023-09-27T04:41:28.788Z,0.00
2023-09-27T04:41:59.388Z,0.00
2023-09-27T04:42:30.006Z,0.00
2023-09-27T04:43:00.638Z,0.00
2023-09-27T04:43:31.268Z,0.00
2023-09-27T04:44:01.914Z,0.00
2023-09-27T04:44:32.528Z,0.00
2023-09-27T04:45:03.122Z,0.00
2023-09-27T04:45:33.734Z,0.00
2023-09-27T04:46:04.361Z,0.00
2023-09-27T04:46:34.989Z,0.00
2023-09-27T04:47:05.631Z,0.00
2023-09-27T04:47:36.341Z,0.00
2023-09-27T04:48:07.068Z,0.00
2023-09-27T04:48:37.751Z,0.00
2023-09-27T04:49:08.238Z,0.00
2023-09-27T04:49:38.859Z,0.00
2023-09-27T04:50:09.525Z,0.00
2023-09-27T04:50:40.157Z,0.00
2023-09-27T04:51:10.788Z,0.00
2023-09-27T04:51:41.411Z,0.00
2023-09-27T04:52:12.033Z,0.00
2023-09-27T04:52:42.453Z,0.00
2023-09-27T04:53:12.868Z,0.00
2023-09-27T04:53:43.261Z,0.00
2023-09-27T04:54:13.696Z,0.00
2023-09-27T04:54:44.101Z,0.00
2023-09-27T04:55:14.741Z,0.00
2023-09-27T04:55:45.414Z,0.00
2023-09-27T04:56:16.121Z,0.00
2023-09-27T04:56:46.725Z,0.00
2023-09-27T04:57:17.460Z,0.00
2023-09-27T04:57:47.881Z,0.00
2023-09-27T04:58:18.457Z,0.00
2023-09-27T04:58:49.254Z,0.00
2023-09-27T04:59:19.706Z,0.00
2023-09-27T04:59:50.415Z,0.00
2023-09-27T05:00:21.282Z,0.00
2023-09-27T05:00:51.265Z,0.00
2023-09-27T05:01:21.429Z,0.00
2023-09-27T05:01:51.827Z,0.00
2023-09-27T05:02:22.224Z,0.00
2023-09-27T05:02:52.722Z,0.00
2023-09-27T05:03:23.337Z,0.00
2023-09-27T05:03:53.791Z,0.00
2023-09-27T05:04:24.225Z,0.00
2023-09-27T05:04:54.681Z,0.00
2023-09-27T05:05:25.222Z,0.00
2023-09-27T05:05:55.662Z,0.00
2023-09-27T05:06:26.073Z,0.00
2023-09-27T05:06:56.485Z,0.00
2023-09-27T05:07:26.905Z,0.00
2023-09-27T05:07:57.425Z,0.00
2023-09-27T05:08:27.857Z,0.00
2023-09-27T05:08:58.237Z,0.00
2023-09-27T05:09:28.646Z,0.00
2023-09-27T05:09:59.056Z,0.00
2023-09-27T05:10:29.469Z,0.00
2023-09-27T05:11:09.359Z,0.00
2023-09-27T05:11:38.919Z,0.00
2023-09-27T05:12:08.891Z,0.00
2023-09-27T05:12:39.658Z,0.00
2023-09-27T05:13:01.891Z,0.00
2023-09-27T05:13:39.775Z,0.00
2023-09-27T05:14:10.186Z,0.00
2023-09-27T05:14:42.623Z,0.00
2023-09-27T05:15:03.428Z,0.00
2023-09-27T05:15:43.539Z,0.00
2023-09-27T05:16:04.407Z,0.00
2023-09-27T05:16:34.832Z,0.00
2023-09-27T05:17:05.301Z,0.00
2023-09-27T05:17:35.830Z,0.00
2023-09-27T05:18:06.402Z,0.00
2023-09-27T05:18:36.817Z,0.00
2023-09-27T05:19:07.208Z,0.00
2023-09-27T05:19:37.605Z,0.00
2023-09-27T05:20:08.113Z,0.00
2023-09-27T05:20:38.633Z,0.00
2023-09-27T05:21:09.024Z,0.00
2023-09-27T05:21:40.519Z,0.00
2023-09-27T05:22:10.157Z,0.00
2023-09-27T05:22:40.614Z,0.00
2023-09-27T05:23:11.010Z,0.00
2023-09-27T05:23:41.426Z,5.62
2023-09-27T05:24:11.802Z,5.62
2023-09-27T05:24:42.215Z,5.62
2023-09-27T05:25:13.110Z,5.62
2023-09-27T05:25:42.842Z,5.62
2023-09-27T05:26:13.459Z,5.62
2023-09-27T05:26:43.845Z,5.62
2023-09-27T05:27:14.261Z,5.62
2023-09-27T05:27:44.672Z,5.62
2023-09-27T05:28:15.130Z,5.62
2023-09-27T05:28:45.513Z,5.62
2023-09-27T05:29:15.966Z,5.62
2023-09-27T05:29:46.372Z,5.62
2023-09-27T05:30:16.781Z,5.62
2023-09-27T05:30:47.201Z,5.62
2023-09-27T05:31:17.808Z,11.25
2023-09-27T05:31:48.234Z,11.25
2023-09-27T05:32:18.674Z,11.25
2023-09-27T05:32:49.288Z,11.25
2023-09-27T05:33:19.719Z,11.25
2023-09-27T05:33:50.114Z,11.25
2023-09-27T05:34:20.592Z,11.25
2023-09-27T05:34:50.972Z,11.25
2023-09-27T05:35:21.473Z,11.25
2023-09-27T05:35:51.872Z,11.25
2023-09-27T05:36:22.318Z,11.25
2023-09-27T05:36:52.742Z,16.88
2023-09-27T05:37:23.184Z,16.88
2023-09-27T05:37:53.602Z,16.88
2023-09-27T05:38:24.104Z,16.88
2023-09-27T05:38:54.836Z,16.88
2023-09-27T05:39:25.404Z,16.88
2023-09-27T05:39:55.833Z,16.88
2023-09-27T05:40:26.260Z,16.88
2023-09-27T05:40:56.685Z,22.50
2023-09-27T05:41:27.170Z,22.50
2023-09-27T05:41:57.577Z,22.50
2023-09-27T05:42:28.041Z,22.50
2023-09-27T05:43:00.013Z,22.50
2023-09-27T05:43:29.230Z,22.50
2023-09-27T05:43:59.728Z,28.12
2023-09-27T05:44:30.162Z,28.12
2023-09-27T05:45:00.593Z,28.12
2023-09-27T05:45:31.037Z,28.12
2023-09-27T05:46:01.486Z,28.12
2023-09-27T05:46:31.956Z,28.12
2023-09-27T05:47:02.499Z,28.12
2023-09-27T05:47:33.008Z,28.12
2023-09-27T05:48:03.603Z,33.75
2023-09-27T05:48:34.136Z,33.75
2023-09-27T05:49:04.659Z,33.75
2023-09-27T05:49:35.133Z,33.75
2023-09-27T05:50:05.598Z,33.75
2023-09-27T05:50:36.101Z,33.75
2023-09-27T05:51:06.521Z,33.75
2023-09-27T05:51:37.028Z,39.38
2023-09-27T05:52:07.469Z,39.38
2023-09-27T05:52:37.921Z,39.38
2023-09-27T05:53:08.395Z,45.00
2023-09-27T05:53:38.867Z,45.00
2023-09-27T05:54:09.254Z,45.00
2023-09-27T05:54:39.671Z,45.00
2023-09-27T05:55:10.133Z,50.62
2023-09-27T05:55:41.454Z,50.62
2023-09-27T05:56:11.277Z,50.62
2023-09-27T05:56:41.760Z,50.62
2023-09-27T05:57:12.298Z,50.62
2023-09-27T05:57:42.698Z,56.25
2023-09-27T05:58:13.146Z,56.25
2023-09-27T05:58:43.583Z,56.25
2023-09-27T05:59:14.058Z,56.25
2023-09-27T05:59:44.512Z,56.25
2023-09-27T06:00:14.936Z,56.25
2023-09-27T06:00:45.418Z,61.88
2023-09-27T06:01:15.848Z,61.88
2023-09-27T06:01:46.279Z,61.88
2023-09-27T06:02:16.729Z,61.88
2023-09-27T06:02:47.244Z,67.50
2023-09-27T06:03:17.898Z,67.50
2023-09-27T06:03:48.480Z,67.50
2023-09-27T06:04:18.951Z,73.12
2023-09-27T06:04:49.369Z,73.12
2023-09-27T06:05:19.853Z,73.12
2023-09-27T06:05:50.241Z,73.12
2023-09-27T06:06:20.746Z,73.12
2023-09-27T06:06:51.169Z,73.12
2023-09-27T06:07:21.612Z,73.12
2023-09-27T06:07:52.039Z,73.12
2023-09-27T06:08:22.531Z,73.12
2023-09-27T06:08:53.289Z,73.12
2023-09-27T06:09:24.921Z,73.12
2023-09-27T06:09:54.168Z,73.12
2023-09-27T06:10:24.584Z,73.12
2023-09-27T06:10:55.037Z,73.12
2023-09-27T06:11:25.517Z,73.12
2023-09-27T06:11:56.985Z,73.12
2023-09-27T06:12:26.702Z,73.12
2023-09-27T06:12:57.970Z,73.12
2023-09-27T06:13:27.717Z,73.12
2023-09-27T06:13:58.147Z,73.12
2023-09-27T06:14:28.681Z,73.12
2023-09-27T06:14:59.155Z,73.12
2023-09-27T06:15:29.610Z,78.75
2023-09-27T06:16:00.150Z,78.75
2023-09-27T06:16:30.616Z,78.75
2023-09-27T06:17:01.100Z,78.75
2023-09-27T06:17:31.597Z,84.38
2023-09-27T06:18:02.194Z,84.38
2023-09-27T06:18:32.716Z,84.38
2023-09-27T06:19:03.161Z,84.38
2023-09-27T06:19:33.577Z,84.38
2023-09-27T06:20:04.061Z,84.38
2023-09-27T06:20:34.554Z,84.38
2023-09-27T06:21:04.955Z,84.38
2023-09-27T06:21:35.380Z,84.38
2023-09-27T06:22:05.839Z,84.38
2023-09-27T06:22:36.261Z,84.38
2023-09-27T06:23:06.733Z,84.38
2023-09-27T06:23:37.221Z,84.38
2023-09-27T06:24:07.610Z,84.38
2023-09-27T06:24:38.073Z,84.38
2023-09-27T06:25:08.529Z,78.75
2023-09-27T06:25:39.321Z,78.75
2023-09-27T06:26:09.839Z,78.75
2023-09-27T06:26:40.264Z,78.75
2023-09-27T06:27:10.822Z,73.12
2023-09-27T06:27:41.247Z,73.12
2023-09-27T06:28:11.522Z,73.12
2023-09-27T06:28:42.000Z,73.12
2023-09-27T06:29:12.497Z,73.12
2023-09-27T06:29:42.798Z,78.75
2023-09-27T06:30:13.177Z,78.75
2023-09-27T06:30:43.601Z,78.75
2023-09-27T06:31:14.133Z,78.75
2023-09-27T06:31:44.581Z,78.75
2023-09-27T06:32:15.136Z,78.75
2023-09-27T06:32:45.692Z,73.12
2023-09-27T06:33:16.247Z,73.12
2023-09-27T06:33:46.675Z,73.12
2023-09-27T06:34:17.149Z,73.12
2023-09-27T06:34:47.531Z,73.12
2023-09-27T06:35:18.098Z,73.12
2023-09-27T06:35:48.519Z,73.12
2023-09-27T06:36:18.937Z,73.12
2023-09-27T06:36:49.375Z,67.50
2023-09-27T06:37:19.843Z,67.50
2023-09-27T06:37:50.664Z,61.88
2023-09-27T06:38:20.628Z,61.88
2023-09-27T06:38:51.282Z,61.88
2023-09-27T06:39:21.233Z,61.88
2023-09-27T06:39:51.669Z,61.88
2023-09-27T06:40:22.097Z,67.50
2023-09-27T06:40:52.588Z,67.50
2023-09-27T06:41:23.092Z,67.50
2023-09-27T06:41:53.479Z,67.50
2023-09-27T06:42:23.950Z,67.50
2023-09-27T06:42:54.444Z,61.88
2023-09-27T06:43:24.908Z,61.88
2023-09-27T06:43:55.337Z,61.88
2023-09-27T06:44:25.868Z,61.88
2023-09-27T06:44:56.295Z,61.88
2023-09-27T06:45:26.717Z,61.88
2023-09-27T06:45:57.169Z,61.88
2023-09-27T06:46:30.002Z,61.88
2023-09-27T06:46:59.152Z,61.88
2023-09-27T06:47:29.064Z,61.88